createdAt,value
2023-04-09T00:02:16.362Z,24.35
2023-04-09T00:04:43.998Z,36.25
2023-04-09T00:07:11.495Z,33.85
2023-04-09T00:09:39.092Z,34.83
2023-04-09T00:12:06.400Z,36.65
2023-04-09T00:14:33.952Z,33.90
2023-04-09T00:17:01.261Z,32.20
2023-04-09T00:19:28.810Z,30.13
2023-04-09T00:21:56.246Z,27.60
2023-04-09T00:24:23.780Z,28.15
2023-04-09T00:26:51.414Z,33.17
2023-04-09T00:29:19.114Z,31.40
2023-04-09T00:31:46.428Z,32.60
2023-04-09T00:34:14.142Z,37.90
2023-04-09T00:36:41.382Z,34.00
2023-04-09T00:39:08.909Z,32.95
2023-04-09T00:41:36.197Z,33.88
2023-04-09T00:44:03.822Z,33.97
2023-04-09T00:46:32.651Z,31.77
2023-04-09T00:49:00.299Z,28.50
2023-04-09T00:51:28.725Z,30.75
2023-04-09T00:53:56.822Z,28.05
2023-04-09T00:56:25.646Z,31.35
2023-04-09T00:58:54.339Z,30.15
2023-04-09T01:01:21.833Z,29.05
2023-04-09T01:03:49.621Z,30.90
2023-04-09T01:06:48.206Z,30.10
2023-04-09T01:09:30.344Z,29.17
2023-04-09T01:12:16.279Z,30.77
2023-04-09T01:15:10.025Z,28.67
2023-04-09T01:18:31.510Z,25.33
2023-04-09T01:21:06.968Z,22.70
2023-04-09T01:23:58.157Z,21.13
2023-04-09T01:27:06.919Z,19.83
2023-04-09T01:29:41.492Z,20.40
2023-04-09T01:32:10.758Z,20.83
2023-04-09T01:34:39.091Z,19.90
2023-04-09T01:37:08.512Z,19.17
2023-04-09T01:39:38.652Z,20.88
2023-04-09T01:42:11.231Z,20.75
2023-04-09T01:44:45.461Z,20.15
2023-04-09T01:47:13.836Z,18.95
2023-04-09T01:49:44.895Z,17.50
2023-04-09T01:52:12.779Z,20.40
2023-04-09T01:54:40.031Z,18.45
2023-04-09T01:57:07.722Z,19.15
2023-04-09T01:59:34.970Z,17.95
2023-04-09T02:02:17.578Z,18.10
2023-04-09T02:04:51.637Z,16.63
2023-04-09T02:07:27.198Z,18.10
2023-04-09T02:09:56.243Z,17.38
2023-04-09T02:12:27.213Z,17.02
2023-04-09T02:14:55.261Z,15.52
2023-04-09T02:17:22.928Z,17.23
2023-04-09T02:19:50.943Z,16.38
2023-04-09T02:22:19.053Z,23.33
2023-04-09T02:24:47.235Z,22.63
2023-04-09T02:27:14.905Z,22.25
2023-04-09T02:29:43.723Z,22.73
2023-04-09T02:32:11.229Z,27.98
2023-04-09T02:34:38.528Z,28.15
2023-04-09T02:37:06.093Z,26.80
2023-04-09T02:39:33.461Z,21.45
2023-04-09T02:42:01.405Z,21.77
2023-04-09T02:44:28.722Z,21.08
2023-04-09T02:46:56.377Z,22.38
2023-04-09T02:49:23.690Z,21.42
2023-04-09T02:51:51.188Z,17.10
2023-04-09T02:54:18.448Z,18.40
2023-04-09T02:56:45.964Z,22.75
2023-04-09T02:59:13.197Z,20.67
2023-04-09T03:01:41.128Z,23.38
2023-04-09T03:04:08.594Z,22.10
2023-04-09T03:06:36.218Z,25.55
2023-04-09T03:09:03.568Z,22.92
2023-04-09T03:11:32.237Z,26.40
2023-04-09T03:13:59.461Z,27.33
2023-04-09T03:16:27.085Z,27.02
2023-04-09T03:18:54.469Z,28.65
2023-04-09T03:21:22.174Z,23.58
2023-04-09T03:23:49.428Z,22.42
2023-04-09T03:26:16.987Z,24.98
2023-04-09T03:28:44.210Z,24.38
2023-04-09T03:31:11.780Z,24.58
2023-04-09T03:33:38.998Z,27.77
2023-04-09T03:36:06.727Z,25.52
2023-04-09T03:38:33.991Z,22.15
2023-04-09T03:41:01.459Z,24.23
2023-04-09T03:43:28.690Z,32.95
2023-04-09T03:45:56.310Z,32.42
2023-04-09T03:48:23.541Z,31.88
2023-04-09T03:50:51.133Z,28.17
2023-04-09T03:53:18.364Z,25.38
2023-04-09T03:55:46.472Z,25.52
2023-04-09T03:58:13.730Z,32.45
2023-04-09T04:00:41.371Z,38.42
2023-04-09T04:03:08.748Z,39.90
2023-04-09T04:05:36.407Z,36.80
2023-04-09T04:08:03.617Z,32.22
2023-04-09T04:10:31.169Z,40.30
2023-04-09T04:12:58.442Z,39.50
2023-04-09T04:15:26.045Z,34.10
2023-04-09T04:17:53.438Z,34.00
2023-04-09T04:20:21.617Z,30.55
2023-04-09T04:22:48.831Z,28.83
2023-04-09T04:25:16.444Z,32.45
2023-04-09T04:27:43.676Z,33.70
2023-04-09T04:30:11.418Z,38.28
2023-04-09T04:32:38.785Z,31.23
2023-04-09T04:35:06.776Z,26.35
2023-04-09T04:37:34.232Z,30.25
2023-04-09T04:40:04.379Z,38.97
2023-04-09T04:42:31.723Z,31.15
2023-04-09T04:44:59.451Z,33.13
2023-04-09T04:47:26.882Z,34.63
2023-04-09T04:49:54.646Z,34.33
2023-04-09T04:52:21.976Z,35.63
2023-04-09T04:54:49.507Z,38.13
2023-04-09T04:57:16.767Z,34.92
2023-04-09T04:59:44.426Z,30.42
2023-04-09T05:02:11.839Z,42.13
2023-04-09T05:04:39.763Z,43.75
2023-04-09T05:07:07.287Z,41.95
2023-04-09T05:09:34.792Z,36.55
2023-04-09T05:12:02.546Z,33.10
2023-04-09T05:14:30.097Z,30.52
2023-04-09T05:16:57.373Z,29.88
2023-04-09T05:19:25.016Z,27.50
2023-04-09T05:21:52.322Z,32.25
2023-04-09T05:24:19.919Z,31.65
2023-04-09T05:26:47.067Z,33.42
2023-04-09T05:29:14.720Z,34.45
2023-04-09T05:31:43.169Z,35.55
2023-04-09T05:34:10.794Z,35.65
2023-04-09T05:36:38.031Z,46.80
2023-04-09T05:39:05.589Z,42.22
2023-04-09T05:41:33.716Z,38.70
2023-04-09T05:44:01.372Z,42.05
2023-04-09T05:46:29.261Z,44.70
2023-04-09T05:48:56.797Z,49.58
2023-04-09T05:51:24.143Z,42.70
2023-04-09T05:53:51.875Z,45.55
2023-04-09T05:56:19.574Z,40.33
2023-04-09T05:58:47.741Z,46.33
2023-04-09T06:01:15.464Z,42.72
2023-04-09T06:03:44.004Z,43.67
2023-04-09T06:06:11.501Z,45.65
2023-04-09T06:08:39.265Z,43.88
2023-04-09T06:11:10.579Z,40.92
2023-04-09T06:13:38.857Z,41.22
2023-04-09T06:16:10.350Z,39.13
2023-04-09T06:18:37.963Z,43.85
2023-04-09T06:21:07.729Z,45.20
2023-04-09T06:23:37.194Z,43.50
2023-04-09T06:26:04.499Z,44.05
2023-04-09T06:28:32.448Z,48.13
2023-04-09T06:30:59.830Z,43.80
2023-04-09T06:33:27.650Z,45.83
2023-04-09T06:35:54.933Z,44.80
2023-04-09T06:38:22.502Z,45.20
2023-04-09T06:40:49.848Z,40.90
2023-04-09T06:43:17.353Z,41.75
2023-04-09T06:45:44.649Z,38.65
2023-04-09T06:48:12.222Z,37.88
2023-04-09T06:50:39.614Z,39.38
2023-04-09T06:53:07.661Z,40.85
2023-04-09T06:55:34.924Z,42.38
2023-04-09T06:58:02.915Z,45.78
2023-04-09T07:00:30.177Z,42.63
2023-04-09T07:02:57.956Z,41.35
2023-04-09T07:05:25.484Z,40.03
2023-04-09T07:07:53.226Z,39.40
2023-04-09T07:10:20.491Z,38.33
2023-04-09T07:12:48.213Z,35.85
2023-04-09T07:15:15.533Z,39.65
2023-04-09T07:17:43.310Z,38.17
2023-04-09T07:20:11.403Z,35.25
2023-04-09T07:22:39.275Z,38.35
2023-04-09T07:25:07.499Z,45.17
2023-04-09T07:27:35.944Z,43.30
2023-04-09T07:30:04.588Z,43.78
2023-04-09T07:32:32.306Z,41.60
2023-04-09T07:34:59.813Z,39.53
2023-04-09T07:37:27.592Z,37.35
2023-04-09T07:39:54.927Z,35.10
2023-04-09T07:42:22.842Z,34.80
2023-04-09T07:44:50.466Z,33.70
2023-04-09T07:47:18.257Z,88.68
2023-04-09T07:49:45.660Z,80.78
2023-04-09T07:52:13.329Z,89.00
2023-04-09T07:54:40.732Z,46.72
2023-04-09T07:57:08.413Z,34.85
2023-04-09T07:59:36.538Z,28.98
2023-04-09T08:02:04.378Z,27.92
2023-04-09T08:04:32.243Z,23.35
2023-04-09T08:07:00.104Z,30.17
2023-04-09T08:09:27.425Z,29.02
2023-04-09T08:11:55.090Z,32.45
2023-04-09T08:14:22.385Z,28.25
2023-04-09T08:16:50.682Z,33.15
2023-04-09T08:19:20.317Z,31.92
2023-04-09T08:21:51.476Z,32.40
2023-04-09T08:24:18.890Z,30.00
2023-04-09T08:26:47.151Z,27.00
2023-04-09T08:29:15.656Z,32.30
2023-04-09T08:31:43.311Z,29.13
2023-04-09T08:34:10.722Z,31.70
2023-04-09T08:36:38.349Z,32.95
2023-04-09T08:39:05.740Z,33.47
2023-04-09T08:41:35.029Z,31.88
2023-04-09T08:44:02.804Z,30.25
2023-04-09T08:46:30.580Z,36.53
2023-04-09T08:48:57.917Z,108.18
2023-04-09T08:51:25.870Z,90.97
2023-04-09T08:54:03.934Z,74.55
2023-04-09T08:56:32.655Z,40.13
2023-04-09T08:58:59.989Z,38.53
2023-04-09T09:01:30.041Z,34.08
2023-04-09T09:04:00.451Z,33.30
2023-04-09T09:06:33.133Z,37.85
2023-04-09T09:09:21.217Z,33.78
2023-04-09T09:11:52.633Z,42.53
2023-04-09T09:14:20.570Z,39.10
2023-04-09T09:16:56.940Z,39.90
2023-04-09T09:19:27.316Z,42.63
2023-04-09T09:22:00.679Z,38.35
2023-04-09T09:24:28.851Z,37.45
2023-04-09T09:26:57.627Z,42.75
2023-04-09T09:29:26.205Z,39.17
2023-04-09T09:31:56.296Z,42.83
2023-04-09T09:34:25.485Z,40.15
2023-04-09T09:36:53.339Z,39.13
2023-04-09T09:39:22.153Z,41.55
2023-04-09T09:42:08.337Z,43.10
2023-04-09T09:44:35.937Z,45.25
2023-04-09T09:47:05.193Z,42.65
2023-04-09T09:49:32.665Z,41.53
2023-04-09T09:52:03.568Z,42.08
2023-04-09T09:54:43.264Z,42.05
2023-04-09T09:57:14.899Z,43.67
2023-04-09T09:59:52.173Z,41.50
2023-04-09T10:02:24.103Z,64.45
2023-04-09T10:04:55.441Z,42.45
2023-04-09T10:07:24.434Z,36.88
2023-04-09T10:09:54.425Z,37.55
2023-04-09T10:12:27.299Z,38.22
2023-04-09T10:14:56.697Z,41.85
2023-04-09T10:17:24.485Z,34.83
2023-04-09T10:20:49.029Z,32.22
2023-04-09T10:23:31.534Z,36.75
2023-04-09T10:25:58.807Z,35.30
2023-04-09T10:28:26.331Z,38.55
2023-04-09T10:30:55.135Z,34.92
2023-04-09T10:33:29.238Z,35.70
2023-04-09T10:36:04.721Z,33.13
2023-04-09T10:38:38.512Z,34.08
2023-04-09T10:41:42.282Z,32.90
2023-04-09T10:44:35.507Z,35.00
2023-04-09T10:47:04.625Z,34.75
2023-04-09T10:49:42.675Z,37.90
2023-04-09T10:52:13.838Z,38.53
2023-04-09T10:54:46.470Z,39.10
2023-04-09T10:57:16.700Z,31.17
2023-04-09T10:59:55.251Z,29.90
2023-04-09T11:02:40.785Z,28.85
2023-04-09T11:05:32.667Z,28.63
2023-04-09T11:08:09.831Z,26.85
2023-04-09T11:10:44.075Z,31.38
2023-04-09T11:13:17.631Z,30.60
2023-04-09T11:15:46.158Z,28.98
2023-04-09T11:18:23.133Z,21.73
2023-04-09T11:20:58.246Z,20.92
2023-04-09T11:23:26.932Z,22.40
2023-04-09T11:25:55.899Z,27.40
2023-04-09T11:28:24.455Z,29.55
2023-04-09T11:30:53.209Z,26.75
2023-04-09T11:33:20.980Z,26.33
2023-04-09T11:35:49.248Z,25.73
2023-04-09T11:38:16.727Z,28.15
2023-04-09T11:40:48.880Z,39.65
2023-04-09T11:43:17.954Z,51.80
2023-04-09T11:45:49.448Z,68.28
2023-04-09T11:48:23.419Z,42.00
2023-04-09T11:50:51.552Z,26.77
2023-04-09T11:53:22.127Z,25.60
2023-04-09T11:55:53.759Z,28.27
2023-04-09T11:58:26.573Z,39.92
2023-04-09T12:00:58.044Z,38.00
2023-04-09T12:03:36.929Z,29.10
2023-04-09T12:06:07.132Z,32.05
2023-04-09T12:08:36.337Z,33.45
2023-04-09T12:11:12.832Z,34.50
2023-04-09T12:13:44.649Z,34.75
2023-04-09T12:16:13.937Z,33.00
2023-04-09T12:18:41.566Z,29.23
2023-04-09T12:21:09.225Z,24.75
2023-04-09T12:23:36.632Z,22.30
2023-04-09T12:26:04.454Z,25.13
2023-04-09T12:28:31.745Z,22.27
2023-04-09T12:30:59.749Z,21.92
2023-04-09T12:33:27.346Z,27.55
2023-04-09T12:35:58.437Z,26.10
2023-04-09T12:38:26.887Z,22.25
2023-04-09T12:40:54.591Z,23.75
2023-04-09T12:43:21.935Z,24.63
2023-04-09T12:45:49.585Z,24.00
2023-04-09T12:48:16.821Z,25.35
2023-04-09T12:50:44.723Z,23.20
2023-04-09T12:53:12.032Z,21.45
2023-04-09T12:55:41.550Z,21.05
2023-04-09T12:58:10.009Z,23.88
2023-04-09T13:00:37.734Z,20.85
2023-04-09T13:03:05.113Z,22.70
2023-04-09T13:05:35.560Z,26.30
2023-04-09T13:08:03.604Z,22.83
2023-04-09T13:10:31.713Z,20.58
2023-04-09T13:12:59.188Z,19.00
2023-04-09T13:15:27.501Z,21.33
2023-04-09T13:17:55.773Z,18.85
2023-04-09T13:20:23.556Z,19.38
2023-04-09T13:22:51.098Z,18.88
2023-04-09T13:25:18.748Z,20.10
2023-04-09T13:27:46.143Z,20.60
2023-04-09T13:30:13.946Z,20.25
2023-04-09T13:32:41.482Z,20.02
2023-04-09T13:35:10.430Z,19.23
2023-04-09T13:37:37.726Z,19.23
2023-04-09T13:40:06.549Z,17.75
2023-04-09T13:42:33.794Z,14.60
2023-04-09T13:45:01.588Z,15.68
2023-04-09T13:47:28.927Z,12.63
2023-04-09T13:49:56.562Z,13.90
2023-04-09T13:52:26.752Z,15.60
2023-04-09T13:54:56.879Z,14.50
2023-04-09T13:57:24.151Z,14.20
2023-04-09T13:59:51.733Z,14.90
2023-04-09T14:02:19.375Z,13.93
2023-04-09T14:04:47.280Z,13.25
2023-04-09T14:07:14.580Z,13.57
2023-04-09T14:09:42.167Z,12.63
2023-04-09T14:12:09.466Z,10.82
2023-04-09T14:14:36.977Z,8.75
2023-04-09T14:17:04.822Z,7.88
2023-04-09T14:19:32.447Z,8.38
2023-04-09T14:21:59.777Z,9.25
2023-04-09T14:24:27.317Z,9.75
2023-04-09T14:26:54.616Z,10.05
2023-04-09T14:29:22.227Z,10.52
2023-04-09T14:31:49.725Z,11.57
2023-04-09T14:34:17.594Z,12.32
2023-04-09T14:36:44.923Z,13.25
2023-04-09T14:39:12.466Z,11.18
2023-04-09T14:41:39.905Z,10.27
2023-04-09T14:44:07.703Z,9.18
2023-04-09T14:46:36.731Z,8.73
2023-04-09T14:49:04.426Z,7.72
2023-04-09T14:51:31.911Z,7.88
2023-04-09T14:53:59.677Z,8.10
2023-04-09T14:56:27.247Z,9.05
2023-04-09T14:58:54.997Z,10.88
2023-04-09T15:01:22.858Z,11.23
2023-04-09T15:03:50.849Z,10.73
2023-04-09T15:06:18.347Z,12.73
2023-04-09T15:08:46.046Z,11.95
2023-04-09T15:11:17.755Z,12.10
2023-04-09T15:13:45.818Z,12.00
2023-04-09T15:16:23.364Z,14.80
2023-04-09T15:18:52.641Z,12.70
2023-04-09T15:21:20.863Z,12.10
2023-04-09T15:23:51.498Z,13.93
2023-04-09T15:26:19.196Z,15.25
2023-04-09T15:28:46.829Z,12.50
2023-04-09T15:31:14.170Z,9.85
2023-04-09T15:33:44.902Z,9.55
2023-04-09T15:36:12.211Z,11.70
2023-04-09T15:38:39.759Z,11.20
2023-04-09T15:41:07.127Z,9.15
2023-04-09T15:43:34.656Z,9.23
2023-04-09T15:46:11.667Z,9.00
2023-04-09T15:48:39.308Z,12.15
2023-04-09T15:51:06.757Z,11.13
2023-04-09T15:53:34.450Z,11.10
2023-04-09T15:56:02.347Z,11.77
2023-04-09T15:58:29.939Z,10.45
2023-04-09T16:00:57.377Z,10.50
2023-04-09T16:03:25.048Z,12.07
2023-04-09T16:05:52.387Z,12.35
2023-04-09T16:08:19.897Z,13.60
2023-04-09T16:10:47.137Z,16.13
2023-04-09T16:13:14.655Z,14.00
2023-04-09T16:15:41.901Z,13.30
2023-04-09T16:18:10.294Z,14.52
2023-04-09T16:20:37.684Z,11.98
2023-04-09T16:23:05.464Z,10.98
2023-04-09T16:25:32.699Z,13.75
2023-04-09T16:28:00.263Z,12.85
2023-04-09T16:30:27.620Z,11.60
2023-04-09T16:32:55.436Z,13.07
2023-04-09T16:35:22.813Z,14.07
2023-04-09T16:37:51.960Z,14.32
2023-04-09T16:40:24.254Z,15.65
2023-04-09T16:42:51.811Z,14.25
2023-04-09T16:45:19.105Z,21.50
2023-04-09T16:47:50.823Z,19.55
2023-04-09T16:50:20.732Z,17.73
2023-04-09T16:52:48.682Z,16.23
2023-04-09T16:55:16.758Z,17.05
2023-04-09T16:57:44.291Z,15.93
2023-04-09T17:00:12.987Z,15.48
2023-04-09T17:02:40.682Z,14.50
2023-04-09T17:05:09.030Z,16.02
2023-04-09T17:07:36.596Z,18.98
2023-04-09T17:10:04.326Z,18.25
2023-04-09T17:12:32.570Z,18.65
2023-04-09T17:15:00.710Z,17.33
2023-04-09T17:17:28.307Z,17.10
2023-04-09T17:19:56.648Z,20.45
2023-04-09T17:22:24.224Z,21.98
2023-04-09T17:24:52.833Z,21.70
2023-04-09T17:27:20.669Z,22.15
2023-04-09T17:29:48.003Z,19.30
2023-04-09T17:32:15.605Z,20.70
2023-04-09T17:34:46.730Z,22.52
2023-04-09T17:37:14.268Z,22.85
2023-04-09T17:39:41.640Z,22.05
2023-04-09T17:42:11.825Z,21.00
2023-04-09T17:44:39.577Z,20.05
2023-04-09T17:47:07.587Z,20.98
2023-04-09T17:49:34.976Z,20.38
2023-04-09T17:52:02.547Z,22.67
2023-04-09T17:54:36.827Z,21.70
2023-04-09T17:57:04.829Z,19.38
2023-04-09T17:59:33.256Z,19.42
2023-04-09T18:02:01.481Z,21.73
2023-04-09T18:04:29.278Z,27.10
2023-04-09T18:06:57.044Z,24.33
2023-04-09T18:09:24.354Z,21.05
2023-04-09T18:11:56.539Z,20.50
2023-04-09T18:14:24.330Z,19.02
2023-04-09T18:16:51.993Z,20.85
2023-04-09T18:19:19.384Z,23.23
2023-04-09T18:21:46.911Z,29.00
2023-04-09T18:24:14.172Z,27.13
2023-04-09T18:26:41.796Z,30.45
2023-04-09T18:29:09.097Z,25.45
2023-04-09T18:31:36.842Z,26.10
2023-04-09T18:34:04.178Z,32.85
2023-04-09T18:36:31.746Z,34.75
2023-04-09T18:38:59.049Z,36.85
2023-04-09T18:41:27.421Z,41.67
2023-04-09T18:43:55.196Z,46.55
2023-04-09T18:46:23.986Z,47.58
2023-04-09T18:48:51.897Z,57.35
2023-04-09T18:51:21.197Z,49.47
2023-04-09T18:53:54.639Z,48.25
2023-04-09T18:56:22.393Z,39.55
2023-04-09T18:58:51.882Z,34.47
2023-04-09T19:01:23.243Z,29.88
2023-04-09T19:03:50.822Z,29.50
2023-04-09T19:06:20.245Z,29.88
2023-04-09T19:08:50.154Z,28.48
2023-04-09T19:11:17.709Z,32.58
2023-04-09T19:13:44.949Z,33.08
2023-04-09T19:16:12.517Z,30.35
2023-04-09T19:18:39.777Z,29.50
2023-04-09T19:21:08.239Z,30.70
2023-04-09T19:23:35.900Z,30.45
2023-04-09T19:26:05.623Z,29.08
2023-04-09T19:28:32.890Z,25.83
2023-04-09T19:31:02.888Z,25.10
2023-04-09T19:33:30.924Z,29.10
2023-04-09T19:35:58.554Z,30.67
2023-04-09T19:38:25.835Z,33.85
2023-04-09T19:40:53.373Z,31.45
2023-04-09T19:43:21.073Z,35.28
2023-04-09T19:45:48.617Z,34.92
2023-04-09T19:48:16.133Z,38.30
2023-04-09T19:50:45.322Z,38.80
2023-04-09T19:53:12.594Z,33.10
2023-04-09T19:55:40.696Z,36.35
2023-04-09T19:58:07.948Z,37.13
2023-04-09T20:00:35.493Z,38.50
2023-04-09T20:03:03.302Z,32.83
2023-04-09T20:05:31.059Z,29.15
2023-04-09T20:07:58.372Z,30.38
2023-04-09T20:10:26.124Z,32.67
2023-04-09T20:12:54.046Z,31.33
2023-04-09T20:15:21.844Z,32.70
2023-04-09T20:17:50.663Z,33.53
2023-04-09T20:20:20.593Z,33.13
2023-04-09T20:22:56.258Z,31.88
2023-04-09T20:25:25.829Z,31.95
2023-04-09T20:27:54.383Z,33.30
2023-04-09T20:30:22.718Z,32.45
2023-04-09T20:32:50.150Z,33.75
2023-04-09T20:35:17.796Z,35.00
2023-04-09T20:37:45.156Z,34.58
2023-04-09T20:40:12.936Z,32.78
2023-04-09T20:42:44.314Z,33.95
2023-04-09T20:45:12.046Z,33.13
2023-04-09T20:47:39.338Z,36.67
2023-04-09T20:50:07.795Z,30.75
2023-04-09T20:52:35.171Z,37.72
2023-04-09T20:55:02.734Z,36.78
2023-04-09T20:57:30.001Z,39.70
2023-04-09T20:59:57.721Z,36.60
2023-04-09T21:02:25.660Z,39.60
2023-04-09T21:04:53.497Z,40.88
2023-04-09T21:07:20.879Z,37.28
2023-04-09T21:09:49.015Z,37.70
2023-04-09T21:12:16.339Z,40.83
2023-04-09T21:14:43.897Z,43.70
2023-04-09T21:17:11.162Z,38.65
2023-04-09T21:19:38.744Z,40.85
2023-04-09T21:22:06.029Z,40.78
2023-04-09T21:24:35.330Z,35.20
2023-04-09T21:27:06.818Z,38.15
2023-04-09T21:29:35.055Z,44.75
2023-04-09T21:32:02.953Z,46.88
2023-04-09T21:34:31.542Z,45.58
2023-04-09T21:36:58.954Z,46.03
2023-04-09T21:39:26.512Z,48.60
2023-04-09T21:41:53.745Z,45.47
2023-04-09T21:44:21.395Z,46.45
2023-04-09T21:46:48.772Z,43.67
2023-04-09T21:49:16.579Z,43.75
2023-04-09T21:51:46.637Z,44.03
2023-04-09T21:54:14.380Z,42.53
2023-04-09T21:56:41.639Z,45.58
2023-04-09T21:59:09.192Z,39.03
2023-04-09T22:01:36.548Z,34.95
2023-04-09T22:04:04.581Z,37.80
2023-04-09T22:06:32.334Z,36.42
2023-04-09T22:09:00.203Z,42.95
2023-04-09T22:11:28.878Z,38.05
2023-04-09T22:13:57.618Z,44.55
2023-04-09T22:16:26.124Z,43.65
2023-04-09T22:18:54.857Z,43.70
2023-04-09T22:21:22.613Z,43.40
2023-04-09T22:23:50.156Z,39.05
2023-04-09T22:26:17.511Z,38.78
2023-04-09T22:28:45.078Z,40.63
2023-04-09T22:31:12.618Z,38.33
2023-04-09T22:33:40.551Z,39.60
2023-04-09T22:36:08.300Z,35.65
2023-04-09T22:38:36.243Z,35.83
2023-04-09T22:41:03.613Z,40.70
2023-04-09T22:43:31.734Z,40.90
2023-04-09T22:45:58.949Z,40.25
2023-04-09T22:48:26.451Z,41.90
2023-04-09T22:50:53.718Z,40.22
2023-04-09T22:53:21.830Z,41.50
2023-04-09T22:55:51.651Z,38.85
2023-04-09T22:58:19.463Z,39.72
2023-04-09T23:00:47.625Z,36.45
2023-04-09T23:03:15.977Z,30.80
2023-04-09T23:05:43.906Z,35.13
2023-04-09T23:08:11.618Z,33.38
2023-04-09T23:10:38.902Z,35.28
2023-04-09T23:13:06.552Z,37.78
2023-04-09T23:15:34.185Z,35.45
2023-04-09T23:18:01.762Z,36.63
2023-04-09T23:20:30.013Z,40.22
2023-04-09T23:22:57.536Z,41.47
2023-04-09T23:25:24.797Z,38.97
2023-04-09T23:27:52.324Z,42.15
2023-04-09T23:30:21.649Z,42.33
2023-04-09T23:32:49.420Z,44.55
2023-04-09T23:35:16.816Z,41.63
2023-04-09T23:37:44.461Z,39.83
2023-04-09T23:40:12.619Z,41.22
2023-04-09T23:42:40.258Z,41.97
2023-04-09T23:45:08.316Z,42.22
2023-04-09T23:47:38.046Z,38.60
2023-04-09T23:50:07.975Z,37.35
2023-04-09T23:52:38.453Z,38.22
2023-04-09T23:55:10.865Z,38.47
2023-04-09T23:57:39.612Z,43.08
